Time;durP1;ratioP1;P1;durP2;ratioP2;P2;SDS_P1;SDS_P2;PMS_P1;PMS_P2;Temp;Humidity;BMP_temperature;BMP_pressure;BME280_temperature;BME280_humidity;BME280_pressure;Samples;Min_cycle;Max_cycle;Signal;HPM_P1;HPM_P2
2023/01/27 00:00:12;;;;;;;11.18;5.88;;;5.00;99.90;;;;;;5052738;28;20033;-63
2023/01/27 00:02:39;;;;;;;12.38;5.97;;;4.90;99.90;;;;;;5051479;28;20560;-63
2023/01/27 00:05:06;;;;;;;12.52;5.60;;;4.80;99.90;;;;;;5053374;28;20559;-63
2023/01/27 00:07:32;;;;;;;12.65;5.90;;;4.80;99.90;;;;;;5034839;28;20080;-63
2023/01/27 00:09:57;;;;;;;10.75;5.50;;;4.70;99.90;;;;;;5051659;28;20071;-63
2023/01/27 00:15:09;;;;;;;;;;;4.60;99.90;;;;;;5054063;28;20099;-63
2023/01/27 00:17:35;;;;;;;14.68;6.85;;;4.60;99.90;;;;;;5050895;28;19916;-63
2023/01/27 00:20:01;;;;;;;12.45;5.75;;;4.60;99.90;;;;;;5052180;28;20139;-63
2023/01/27 00:25:11;;;;;;;10.20;5.78;;;4.60;99.90;;;;;;5052662;28;20087;-63
2023/01/27 00:27:37;;;;;;;15.05;7.25;;;4.60;99.90;;;;;;5051385;28;20072;-63
2023/01/27 00:30:04;;;;;;;11.35;5.22;;;4.50;99.90;;;;;;5053231;28;20036;-63
2023/01/27 00:35:17;;;;;;;10.77;4.97;;;4.60;99.90;;;;;;5051844;28;20450;-62
2023/01/27 00:37:46;;;;;;;13.82;5.55;;;4.60;99.90;;;;;;5050536;28;20493;-63
2023/01/27 00:40:13;;;;;;;10.48;5.03;;;4.60;99.90;;;;;;5052842;28;20481;-63
2023/01/27 00:42:38;;;;;;;12.75;5.30;;;4.60;99.90;;;;;;5050715;28;20048;-63
2023/01/27 00:47:49;;;;;;;13.98;5.75;;;4.60;99.90;;;;;;5052468;28;20079;-63
2023/01/27 00:50:15;;;;;;;12.00;4.97;;;4.60;99.90;;;;;;5026795;28;20064;-63
2023/01/27 00:52:42;;;;;;;9.38;4.78;;;4.60;99.90;;;;;;5013627;28;20471;-63
2023/01/27 00:55:09;;;;;;;7.75;4.38;;;4.60;99.90;;;;;;5031543;28;20045;-63
2023/01/27 00:57:35;;;;;;;11.70;4.97;;;4.60;99.90;;;;;;5032075;28;20509;-63
2023/01/27 01:00:01;;;;;;;11.57;5.70;;;4.60;99.90;;;;;;5031647;28;20052;-63
2023/01/27 01:02:27;;;;;;;13.10;6.25;;;4.50;99.90;;;;;;5030891;28;20049;-63
2023/01/27 01:04:52;;;;;;;10.27;4.85;;;4.50;99.90;;;;;;5031362;28;20068;-63
2023/01/27 01:07:18;;;;;;;11.48;5.38;;;4.60;99.90;;;;;;5030662;28;20090;-63
2023/01/27 01:09:44;;;;;;;9.07;4.93;;;4.50;99.90;;;;;;5014158;28;20132;-63
2023/01/27 01:12:09;;;;;;;10.07;5.10;;;4.60;99.90;;;;;;5031495;28;20140;-63
2023/01/27 01:14:35;;;;;;;12.90;5.75;;;4.50;99.90;;;;;;5013448;28;20037;-63
2023/01/27 01:17:01;;;;;;;13.70;4.93;;;4.50;99.90;;;;;;5031379;28;20091;-63
2023/01/27 01:19:29;;;;;;;13.73;6.20;;;4.50;99.90;;;;;;5014056;28;20079;-63
2023/01/27 01:21:55;;;;;;;10.85;5.13;;;4.50;99.90;;;;;;5031647;28;20052;-63
2023/01/27 01:24:20;;;;;;;12.98;5.18;;;4.50;99.90;;;;;;5014611;28;20037;-63
2023/01/27 01:26:46;;;;;;;11.02;5.20;;;4.50;99.90;;;;;;5030210;28;20577;-62
2023/01/27 01:29:11;;;;;;;10.93;5.07;;;4.50;99.90;;;;;;5031972;28;20103;-63
2023/01/27 01:31:37;;;;;;;11.57;4.95;;;4.40;99.90;;;;;;5030765;28;20038;-63
2023/01/27 01:34:03;;;;;;;13.07;6.68;;;4.40;99.90;;;;;;5031698;28;20363;-63
2023/01/27 01:36:29;;;;;;;10.80;4.53;;;4.40;99.90;;;;;;5030183;28;20518;-63
2023/01/27 01:38:58;;;;;;;9.63;4.70;;;4.40;99.90;;;;;;5032091;28;20037;-63
2023/01/27 01:41:24;;;;;;;10.77;5.18;;;4.40;99.90;;;;;;5031732;28;20045;-63
2023/01/27 01:43:50;;;;;;;9.82;5.03;;;4.40;99.90;;;;;;5030482;28;20076;-63
2023/01/27 01:46:17;;;;;;;12.52;5.05;;;4.40;99.90;;;;;;5030799;28;20083;-63
2023/01/27 01:48:46;;;;;;;11.25;5.05;;;4.40;99.90;;;;;;5029743;28;20088;-62
2023/01/27 01:51:30;;;;;;;11.35;5.07;;;4.40;99.90;;;;;;5032042;28;20049;-63
2023/01/27 01:54:05;;;;;;;11.65;4.45;;;4.40;99.90;;;;;;5031220;28;20431;-62
2023/01/27 01:56:34;;;;;;;;;;;4.30;99.90;;;;;;5029864;28;20037;-63
2023/01/27 01:59:06;;;;;;;16.00;6.03;;;4.30;99.90;;;;;;5032125;28;20004;-63
2023/01/27 02:01:32;;;;;;;9.40;4.43;;;4.30;99.90;;;;;;5030713;28;20446;-62
2023/01/27 02:04:01;;;;;;;10.63;4.65;;;4.30;99.90;;;;;;5049798;28;20072;-62
2023/01/27 02:06:27;;;;;;;10.32;4.13;;;4.30;99.90;;;;;;5050053;28;20037;-63
2023/01/27 02:08:54;;;;;;;9.52;4.95;;;4.30;99.90;;;;;;5049736;28;20403;-63
2023/01/27 02:11:20;;;;;;;9.27;4.32;;;4.30;99.90;;;;;;5053798;28;20037;-63
2023/01/27 02:13:46;;;;;;;13.43;4.18;;;4.30;99.90;;;;;;5055279;28;20033;-63
2023/01/27 02:16:12;;;;;;;7.25;2.85;;;4.20;99.90;;;;;;5052210;28;20120;-63
2023/01/27 02:18:39;;;;;;;5.95;2.70;;;4.20;99.90;;;;;;5052881;28;20044;-62
2023/01/27 02:21:06;;;;;;;9.82;3.75;;;4.20;99.90;;;;;;5054442;28;20482;-63
2023/01/27 02:23:53;;;;;;;14.07;4.70;;;4.20;99.90;;;;;;5053392;28;20036;-63
2023/01/27 02:26:39;;;;;;;11.43;3.03;;;4.20;99.90;;;;;;5053896;28;20457;-63
2023/01/27 02:29:10;;;;;;;10.18;2.97;;;4.20;99.90;;;;;;5055499;28;20076;-63
2023/01/27 02:31:36;;;;;;;8.35;2.67;;;4.20;99.90;;;;;;5054058;28;20544;-63
2023/01/27 02:34:07;;;;;;;8.63;2.58;;;4.20;99.90;;;;;;5054072;28;20037;-63
2023/01/27 02:36:39;;;;;;;6.65;2.30;;;4.20;99.90;;;;;;5036855;28;20060;-63
2023/01/27 02:39:07;;;;;;;7.28;2.47;;;4.30;99.90;;;;;;5053307;28;20037;-63
2023/01/27 02:41:39;;;;;;;5.38;1.83;;;4.30;99.90;;;;;;5053417;28;20087;-63
2023/01/27 02:44:06;;;;;;;6.78;1.85;;;4.40;99.90;;;;;;5036793;28;20040;-63
2023/01/27 02:46:31;;;;;;;8.75;2.47;;;4.40;99.90;;;;;;5053973;28;20550;-63
2023/01/27 02:48:58;;;;;;;2.63;1.15;;;4.50;99.90;;;;;;5037472;28;20033;-63
2023/01/27 02:51:24;;;;;;;5.90;1.60;;;4.50;99.90;;;;;;5036328;28;20049;-63
2023/01/27 02:53:49;;;;;;;3.83;1.33;;;4.50;99.90;;;;;;5053356;28;20386;-63
2023/01/27 02:56:15;;;;;;;4.88;1.42;;;4.50;99.90;;;;;;5053705;28;20510;-63
2023/01/27 02:58:41;;;;;;;5.65;1.88;;;4.50;99.90;;;;;;5053008;28;20430;-63
2023/01/27 03:01:07;;;;;;;4.32;1.50;;;4.50;99.90;;;;;;5054840;28;20520;-63
2023/01/27 03:03:33;;;;;;;4.93;1.40;;;4.50;99.90;;;;;;5053151;28;20124;-63
2023/01/27 03:05:59;;;;;;;3.78;1.15;;;4.50;99.90;;;;;;5018526;28;20171;-63
2023/01/27 03:08:25;;;;;;;4.63;1.52;;;4.50;99.90;;;;;;5033409;28;20056;-63
2023/01/27 03:10:52;;;;;;;5.38;1.83;;;4.50;99.90;;;;;;5034719;28;20049;-63
2023/01/27 03:13:23;;;;;;;5.57;1.55;;;4.40;99.90;;;;;;5033012;28;20033;-63
2023/01/27 03:18:34;;;;;;;7.70;1.50;;;4.40;99.90;;;;;;5032988;28;20391;-63
2023/01/27 03:21:05;;;;;;;5.80;1.65;;;4.50;99.90;;;;;;5015812;28;20053;-63
2023/01/27 03:23:33;;;;;;;4.20;1.27;;;4.50;99.90;;;;;;5052836;28;20409;-63
2023/01/27 03:26:00;;;;;;;4.78;1.23;;;4.40;99.90;;;;;;5053204;28;20045;-63
2023/01/27 03:28:26;;;;;;;4.97;1.42;;;4.40;99.90;;;;;;5052289;28;20398;-63
2023/01/27 03:30:59;;;;;;;5.18;1.27;;;4.40;99.90;;;;;;5054283;28;20041;-63
2023/01/27 03:33:24;;;;;;;7.10;1.50;;;4.50;99.90;;;;;;5035213;28;20114;-63
2023/01/27 03:46:47;;;;;;;6.78;1.38;;;4.30;99.90;;;;;;5052278;28;20136;-63
2023/01/27 03:49:13;;;;;;;4.28;1.38;;;4.30;99.90;;;;;;5052046;28;20147;-63
2023/01/27 03:51:39;;;;;;;8.43;1.88;;;4.30;99.90;;;;;;5045235;28;20496;-63
2023/01/27 03:54:04;;;;;;;5.88;1.67;;;4.20;99.90;;;;;;5032820;28;20398;-63
2023/01/27 03:56:30;;;;;;;4.35;1.20;;;4.20;99.90;;;;;;5031391;28;20120;-63
2023/01/27 03:58:56;;;;;;;4.72;1.40;;;4.20;99.90;;;;;;5032555;28;20033;-63
2023/01/27 04:01:23;;;;;;;3.78;1.13;;;4.20;99.90;;;;;;5032911;28;20045;-63
2023/01/27 04:09:29;;;;;;;6.05;1.58;;;4.10;99.90;;;;;;5031584;28;20111;-63
2023/01/27 04:11:57;;;;;;;6.45;1.77;;;4.00;99.90;;;;;;5032819;28;20069;-63
2023/01/27 04:14:27;;;;;;;5.95;1.60;;;4.00;99.90;;;;;;5032322;28;20120;-63
2023/01/27 04:16:56;;;;;;;4.55;1.38;;;3.90;99.90;;;;;;5031837;28;20386;-63
2023/01/27 04:19:22;;;;;;;4.50;1.60;;;3.90;99.90;;;;;;5032193;28;20069;-63
2023/01/27 04:21:48;;;;;;;5.30;2.08;;;3.90;99.90;;;;;;5015022;28;20438;-63
2023/01/27 04:24:24;;;;;;;3.95;1.80;;;3.90;99.90;;;;;;5032547;28;20045;-63
2023/01/27 04:27:02;;;;;;;5.68;2.10;;;3.90;99.90;;;;;;5031640;28;20080;-63
2023/01/27 04:29:30;;;;;;;8.25;2.20;;;4.00;99.90;;;;;;5034814;28;20041;-63
2023/01/27 04:31:56;;;;;;;6.70;2.40;;;3.90;99.90;;;;;;5051113;28;20051;-63
2023/01/27 04:34:24;;;;;;;8.68;2.58;;;3.90;99.90;;;;;;5052118;28;20095;-63
2023/01/27 04:36:50;;;;;;;4.47;2.13;;;3.90;99.90;;;;;;5034167;28;20375;-63
2023/01/27 04:39:17;;;;;;;7.03;2.63;;;3.90;99.90;;;;;;5052687;28;20421;-63
2023/01/27 04:41:44;;;;;;;8.50;2.88;;;3.90;99.90;;;;;;5051087;28;20044;-63
2023/01/27 04:44:10;;;;;;;7.07;2.47;;;3.90;99.90;;;;;;5052108;28;20432;-63
2023/01/27 04:46:36;;;;;;;5.15;2.42;;;3.90;99.90;;;;;;5050851;28;20064;-63
2023/01/27 04:49:03;;;;;;;7.47;2.92;;;3.90;99.90;;;;;;5051956;28;20040;-63
2023/01/27 04:51:30;;;;;;;6.97;2.30;;;3.80;99.90;;;;;;5050147;28;20055;-63
2023/01/27 04:53:56;;;;;;;5.18;2.03;;;3.90;99.90;;;;;;5035270;28;20055;-63
2023/01/27 04:56:37;;;;;;;5.03;2.17;;;3.80;99.90;;;;;;5017657;28;20080;-63
2023/01/27 04:59:06;;;;;;;6.97;2.60;;;3.80;99.90;;;;;;5014177;28;20125;-63
2023/01/27 05:01:32;;;;;;;5.82;2.90;;;3.90;99.90;;;;;;5014479;28;20091;-63
2023/01/27 05:03:58;;;;;;;3.38;1.60;;;3.90;99.90;;;;;;5015112;28;20073;-63
2023/01/27 05:06:24;;;;;;;4.78;1.83;;;3.90;99.90;;;;;;5031982;28;20076;-63
2023/01/27 05:08:50;;;;;;;10.07;3.97;;;3.90;99.90;;;;;;5031042;28;20090;-63
2023/01/27 05:11:16;;;;;;;4.60;2.13;;;4.00;99.90;;;;;;5049283;28;20041;-63
2023/01/27 05:13:47;;;;;;;6.78;2.65;;;4.00;99.90;;;;;;5049753;28;20064;-63
2023/01/27 05:16:17;;;;;;;4.65;2.00;;;4.00;99.90;;;;;;5051322;28;20037;-63
2023/01/27 05:18:44;;;;;;;6.88;2.20;;;4.00;99.90;;;;;;5050529;28;20044;-63
2023/01/27 05:21:19;;;;;;;5.03;2.00;;;3.90;99.90;;;;;;5050583;28;20041;-63
2023/01/27 05:23:45;;;;;;;3.70;1.67;;;3.90;99.90;;;;;;5051628;28;20123;-63
2023/01/27 05:26:12;;;;;;;7.38;2.00;;;3.90;99.90;;;;;;5051657;28;20123;-63
2023/01/27 05:28:40;;;;;;;3.90;1.48;;;3.90;99.90;;;;;;5051080;28;20041;-63
2023/01/27 05:31:15;;;;;;;3.08;1.45;;;3.90;99.90;;;;;;5050921;28;20041;-63
2023/01/27 05:33:41;;;;;;;8.40;1.48;;;4.00;99.90;;;;;;5049959;28;20128;-63
2023/01/27 05:36:10;;;;;;;4.32;1.63;;;4.00;99.90;;;;;;5034364;28;20081;-63
2023/01/27 05:38:36;;;;;;;5.20;1.70;;;3.90;99.90;;;;;;5050320;28;20061;-63
2023/01/27 05:41:04;;;;;;;3.70;1.42;;;4.00;99.90;;;;;;5033892;28;20055;-63
2023/01/27 05:43:31;;;;;;;12.23;6.10;;;4.00;99.90;;;;;;5049900;28;20041;-63
2023/01/27 05:46:05;;;;;;;5.20;1.67;;;3.90;99.90;;;;;;5033496;28;20044;-63
2023/01/27 05:48:34;;;;;;;11.00;3.17;;;3.90;99.90;;;;;;5013503;28;20037;-63
2023/01/27 05:51:00;;;;;;;12.20;5.60;;;3.90;99.90;;;;;;5030744;28;20037;-63
2023/01/27 05:53:26;;;;;;;10.98;4.95;;;3.90;99.90;;;;;;5030843;28;20099;-63
2023/01/27 05:55:52;;;;;;;8.43;2.80;;;3.90;99.90;;;;;;5013461;28;20474;-63
2023/01/27 05:58:19;;;;;;;6.65;1.92;;;3.90;99.90;;;;;;5031110;28;20442;-63
2023/01/27 06:00:45;;;;;;;6.15;1.73;;;3.90;99.90;;;;;;5031475;28;20115;-63
2023/01/27 06:03:11;;;;;;;6.28;3.45;;;3.90;99.90;;;;;;5050869;28;20485;-63
2023/01/27 06:05:37;;;;;;;5.07;1.50;;;3.90;99.90;;;;;;5033159;28;20037;-63
2023/01/27 06:08:03;;;;;;;5.20;1.70;;;3.80;99.90;;;;;;5050026;28;20367;-63
2023/01/27 06:10:29;;;;;;;3.45;1.27;;;3.80;99.90;;;;;;5049721;28;20043;-63
2023/01/27 06:12:54;;;;;;;6.93;1.40;;;3.90;99.90;;;;;;5050504;28;20041;-63
2023/01/27 06:15:20;;;;;;;5.82;1.50;;;3.90;99.90;;;;;;5049633;28;20044;-63
2023/01/27 06:17:46;;;;;;;5.68;1.98;;;4.00;99.90;;;;;;5033698;28;20041;-63
2023/01/27 06:20:12;;;;;;;5.05;1.48;;;3.90;99.90;;;;;;5034187;28;20367;-63
2023/01/27 06:22:38;;;;;;;8.40;1.85;;;3.90;99.90;;;;;;5039864;28;20056;-64
2023/01/27 06:25:04;;;;;;;4.07;1.35;;;3.90;99.90;;;;;;5030433;28;20087;-63
2023/01/27 06:27:29;;;;;;;3.15;1.05;;;3.90;99.90;;;;;;5031368;28;20148;-63
2023/01/27 06:29:55;;;;;;;7.13;3.28;;;3.90;99.90;;;;;;5013482;28;20052;-63
2023/01/27 06:32:20;;;;;;;6.72;1.60;;;3.90;99.90;;;;;;5015858;28;20037;-63
2023/01/27 06:34:46;;;;;;;5.57;2.65;;;4.00;99.90;;;;;;5036213;28;20427;-63
2023/01/27 06:37:15;;;;;;;4.90;1.88;;;4.00;99.90;;;;;;5033167;28;20191;-63
2023/01/27 06:39:40;;;;;;;3.63;1.20;;;4.00;99.90;;;;;;5040006;28;20469;-63
2023/01/27 06:42:08;;;;;;;4.32;1.50;;;4.00;99.90;;;;;;5030530;28;20052;-63
2023/01/27 06:44:33;;;;;;;7.47;1.80;;;4.00;99.90;;;;;;5029312;28;20045;-63
2023/01/27 06:46:59;;;;;;;4.95;1.40;;;4.00;99.90;;;;;;5031782;28;20376;-63
2023/01/27 06:49:25;;;;;;;6.03;1.35;;;4.00;99.90;;;;;;5031322;28;20041;-63
2023/01/27 06:51:50;;;;;;;3.20;1.15;;;4.10;99.90;;;;;;5038750;28;20041;-63
2023/01/27 06:54:16;;;;;;;3.67;1.40;;;4.10;99.90;;;;;;5050214;28;20083;-63
2023/01/27 06:56:42;;;;;;;3.40;1.13;;;4.10;99.90;;;;;;5033767;28;20037;-63
2023/01/27 06:59:07;;;;;;;3.40;1.48;;;4.00;99.90;;;;;;5053063;28;20037;-63
2023/01/27 07:01:34;;;;;;;4.90;1.73;;;4.10;99.90;;;;;;5036661;28;20047;-63
2023/01/27 07:03:59;;;;;;;4.47;1.40;;;4.00;99.90;;;;;;5054795;28;20041;-63
2023/01/27 07:06:25;;;;;;;5.30;1.40;;;4.00;99.90;;;;;;5053943;28;20037;-63
2023/01/27 07:08:50;;;;;;;6.47;1.50;;;4.00;99.90;;;;;;5051413;28;20052;-63
2023/01/27 07:11:16;;;;;;;6.40;1.83;;;3.90;99.90;;;;;;5050572;28;20107;-63
2023/01/27 07:13:42;;;;;;;7.75;3.10;;;3.90;99.90;;;;;;5049632;28;20033;-63
2023/01/27 07:16:08;;;;;;;5.68;1.90;;;4.00;99.90;;;;;;5052116;28;20116;-63
2023/01/27 07:18:33;;;;;;;4.38;1.30;;;4.00;99.90;;;;;;5049117;28;20119;-63
2023/01/27 07:20:59;;;;;;;4.53;1.67;;;4.00;99.90;;;;;;5050347;28;20041;-63
2023/01/27 07:23:25;;;;;;;4.03;1.50;;;4.00;99.90;;;;;;5050826;28;20041;-63
2023/01/27 07:25:50;;;;;;;4.50;1.75;;;4.00;99.90;;;;;;5032787;28;20080;-63
2023/01/27 07:28:16;;;;;;;4.50;1.58;;;3.90;99.90;;;;;;5031826;28;20041;-63
2023/01/27 07:30:42;;;;;;;4.07;1.30;;;4.00;99.90;;;;;;5029749;28;20037;-63
2023/01/27 07:33:10;;;;;;;5.07;1.70;;;4.00;99.90;;;;;;5027263;28;20041;-63
2023/01/27 07:35:37;;;;;;;3.90;1.52;;;4.00;99.90;;;;;;5029911;28;20386;-64
2023/01/27 07:38:05;;;;;;;9.95;1.80;;;4.00;99.90;;;;;;5031453;28;20383;-63
2023/01/27 07:40:31;;;;;;;5.47;1.48;;;4.00;99.90;;;;;;5030174;28;20052;-63
2023/01/27 07:43:00;;;;;;;7.35;1.50;;;3.90;99.90;;;;;;5030456;28;20044;-63
2023/01/27 07:45:27;;;;;;;3.50;1.23;;;3.90;99.90;;;;;;5013333;28;20049;-63
2023/01/27 07:47:53;;;;;;;4.90;1.40;;;3.90;99.90;;;;;;5028072;28;20401;-63
2023/01/27 07:50:20;;;;;;;3.60;1.20;;;3.90;99.90;;;;;;5050185;28;20033;-63
2023/01/27 07:52:46;;;;;;;4.03;1.63;;;3.90;99.90;;;;;;5032523;28;20048;-62
2023/01/27 07:55:11;;;;;;;4.22;1.58;;;3.90;99.90;;;;;;5043471;28;20045;-63
2023/01/27 07:57:37;;;;;;;5.75;1.67;;;3.90;99.90;;;;;;5032253;28;20029;-63
2023/01/27 08:00:04;;;;;;;4.97;1.60;;;3.90;99.90;;;;;;5046134;28;20141;-63
2023/01/27 08:02:30;;;;;;;3.70;1.23;;;3.90;99.90;;;;;;5046295;28;20045;-63
2023/01/27 08:04:56;;;;;;;3.65;1.10;;;3.90;99.90;;;;;;5029150;28;20041;-63
2023/01/27 08:07:21;;;;;;;13.13;1.75;;;4.00;99.90;;;;;;5013567;28;20072;-63
2023/01/27 08:09:47;;;;;;;2.72;1.10;;;4.00;99.90;;;;;;5029361;28;20057;-63
2023/01/27 08:12:13;;;;;;;3.72;1.30;;;3.90;99.90;;;;;;5029649;28;20053;-63
2023/01/27 08:14:39;;;;;;;3.30;1.13;;;4.00;99.90;;;;;;5028815;28;20095;-63
2023/01/27 08:17:04;;;;;;;4.78;1.40;;;4.00;99.90;;;;;;5057350;28;20040;-63
2023/01/27 08:19:30;;;;;;;5.00;1.10;;;4.00;99.90;;;;;;5049638;28;20413;-63
2023/01/27 08:21:56;;;;;;;2.50;1.02;;;4.00;99.90;;;;;;5036124;28;20037;-63
2023/01/27 08:24:21;;;;;;;2.42;0.90;;;4.00;99.90;;;;;;5030896;28;20048;-63
2023/01/27 08:26:47;;;;;;;6.25;3.03;;;4.00;99.90;;;;;;5029044;28;20071;-63
2023/01/27 08:29:12;;;;;;;3.85;1.58;;;4.00;99.90;;;;;;5046516;28;20406;-63
2023/01/27 08:31:40;;;;;;;8.65;1.98;;;4.00;99.90;;;;;;5031926;28;20745;-63
2023/01/27 08:34:06;;;;;;;4.72;2.10;;;4.10;99.90;;;;;;5033678;28;20442;-63
2023/01/27 08:36:31;;;;;;;3.47;1.10;;;4.10;99.90;;;;;;5033594;28;20084;-63
2023/01/27 08:38:57;;;;;;;2.55;1.15;;;4.10;99.90;;;;;;5043198;28;20049;-63
2023/01/27 08:41:25;;;;;;;3.08;1.27;;;4.10;99.90;;;;;;5029186;28;20119;-63
2023/01/27 08:43:52;;;;;;;3.25;1.23;;;4.10;99.90;;;;;;5011717;28;20056;-63
2023/01/27 08:46:18;;;;;;;3.03;1.10;;;4.20;99.90;;;;;;5012496;28;20087;-63
2023/01/27 08:48:43;;;;;;;3.42;1.30;;;4.20;99.90;;;;;;5029582;28;20049;-63
2023/01/27 08:51:12;;;;;;;3.95;1.00;;;4.20;99.90;;;;;;5034780;28;20052;-63
2023/01/27 08:53:38;;;;;;;3.92;1.10;;;4.20;99.90;;;;;;5043423;28;20057;-63
2023/01/27 08:56:11;;;;;;;1.83;0.68;;;4.30;99.90;;;;;;5044589;28;20040;-63
2023/01/27 08:58:37;;;;;;;4.43;1.00;;;4.30;99.90;;;;;;5034972;28;20045;-63
2023/01/27 09:01:04;;;;;;;5.32;1.70;;;4.30;99.90;;;;;;5030892;28;20041;-63
2023/01/27 09:03:30;;;;;;;13.98;8.48;;;4.30;99.90;;;;;;5027603;28;20072;-63
2023/01/27 09:05:56;;;;;;;5.95;2.45;;;4.40;99.90;;;;;;5039888;28;20511;-63
2023/01/27 09:08:22;;;;;;;3.92;1.48;;;4.40;99.90;;;;;;5062590;28;20401;-63
2023/01/27 09:10:48;;;;;;;2.60;0.90;;;4.40;99.90;;;;;;5061014;28;20040;-63
2023/01/27 09:13:15;;;;;;;3.40;1.40;;;4.40;99.90;;;;;;5028069;28;20041;-63
2023/01/27 09:15:42;;;;;;;2.55;1.30;;;4.40;99.90;;;;;;5021479;28;20050;-63
2023/01/27 09:18:08;;;;;;;2.53;1.17;;;4.40;99.90;;;;;;5044932;28;20116;-63
2023/01/27 09:20:36;;;;;;;2.78;0.90;;;4.40;99.90;;;;;;5034763;28;20040;-63
2023/01/27 09:23:03;;;;;;;4.85;1.00;;;4.40;99.90;;;;;;5068221;28;20041;-63
2023/01/27 09:25:29;;;;;;;2.47;0.70;;;4.40;99.90;;;;;;5043631;28;20032;-63
2023/01/27 09:27:56;;;;;;;10.55;4.40;;;4.40;99.90;;;;;;5043687;28;20509;-63
2023/01/27 09:30:24;;;;;;;9.23;4.13;;;4.40;99.90;;;;;;5011922;28;20458;-63
2023/01/27 09:32:49;;;;;;;5.47;1.73;;;4.40;99.90;;;;;;5007893;28;20068;-63
2023/01/27 09:35:15;;;;;;;4.45;1.00;;;4.40;99.90;;;;;;5011486;28;20422;-63
2023/01/27 09:37:51;;;;;;;2.72;1.00;;;4.50;99.90;;;;;;5042137;28;20053;-63
2023/01/27 09:40:24;;;;;;;5.25;1.55;;;4.50;99.90;;;;;;5028714;28;20057;-63
2023/01/27 09:43:05;;;;;;;2.42;0.70;;;4.50;99.90;;;;;;5047017;28;20044;-63
2023/01/27 09:45:53;;;;;;;4.43;1.15;;;4.50;99.90;;;;;;5045120;28;20561;-64
2023/01/27 09:48:28;;;;;;;5.03;1.30;;;4.40;99.90;;;;;;5044406;28;20090;-63
2023/01/27 09:50:59;;;;;;;;;;;4.40;99.90;;;;;;5038414;28;20371;-63
2023/01/27 09:53:50;;;;;;;4.70;1.40;;;4.40;99.90;;;;;;5047625;28;19917;-63
2023/01/27 09:56:27;;;;;;;3.97;1.08;;;4.30;99.90;;;;;;5036309;28;20490;-63
2023/01/27 09:59:29;;;;;;;3.40;0.90;;;4.30;99.90;;;;;;5030067;28;20501;-63
2023/01/27 10:02:00;;;;;;;17.45;7.63;;;4.30;99.90;;;;;;5043173;28;20036;-63
2023/01/27 10:04:44;;;;;;;35.08;15.00;;;4.30;99.90;;;;;;5054397;28;20069;-63
2023/01/27 10:07:40;;;;;;;10.13;4.88;;;4.30;99.90;;;;;;5032679;28;20045;-63
2023/01/27 10:10:17;;;;;;;9.00;4.38;;;4.40;99.90;;;;;;5033434;28;20045;-63
2023/01/27 10:13:19;;;;;;;5.65;2.10;;;4.40;99.90;;;;;;5027905;28;20046;-63
2023/01/27 10:16:12;;;;;;;7.60;3.47;;;4.50;99.90;;;;;;5038488;28;20041;-63
2023/01/27 10:19:02;;;;;;;3.88;1.60;;;4.50;99.90;;;;;;5047602;28;20044;-63
2023/01/27 10:21:46;;;;;;;3.35;1.00;;;4.50;99.90;;;;;;5046639;28;20040;-63
2023/01/27 10:24:34;;;;;;;2.10;1.00;;;4.50;99.90;;;;;;5049668;28;20075;-63
2023/01/27 10:27:22;;;;;;;4.60;1.40;;;4.50;99.90;;;;;;5030940;28;20068;-63
2023/01/27 10:29:55;;;;;;;4.28;1.50;;;4.50;99.90;;;;;;5027279;28;20516;-63
2023/01/27 10:33:09;;;;;;;4.63;1.50;;;4.60;99.90;;;;;;5032741;28;20044;-63
2023/01/27 10:35:58;;;;;;;6.85;2.42;;;4.50;99.90;;;;;;5024875;28;20107;-63
2023/01/27 10:39:06;;;;;;;5.60;1.80;;;4.50;99.90;;;;;;5031804;28;20497;-63
2023/01/27 10:41:47;;;;;;;5.15;2.40;;;4.50;99.90;;;;;;5028041;28;20060;-63
2023/01/27 10:44:35;;;;;;;5.45;1.90;;;4.50;99.90;;;;;;5034842;28;20211;-63
2023/01/27 10:47:20;;;;;;;5.97;2.63;;;4.50;99.90;;;;;;5051926;28;20494;-62
2023/01/27 10:49:51;;;;;;;7.63;3.20;;;4.50;99.90;;;;;;5051971;28;20041;-63
2023/01/27 10:52:32;;;;;;;5.70;2.35;;;4.50;99.90;;;;;;5034829;28;20053;-63
2023/01/27 10:55:13;;;;;;;6.00;3.60;;;4.60;99.90;;;;;;5030625;28;20041;-63
2023/01/27 10:57:47;;;;;;;8.60;3.40;;;4.70;99.90;;;;;;5027884;28;20727;-63
2023/01/27 11:00:40;;;;;;;9.05;3.65;;;4.80;99.90;;;;;;5051182;28;20090;-63
2023/01/27 11:03:32;;;;;;;7.35;2.22;;;4.80;99.90;;;;;;5038580;28;20099;-63
2023/01/27 11:06:11;;;;;;;6.75;3.45;;;4.80;99.90;;;;;;5030866;28;20122;-63
2023/01/27 11:08:41;;;;;;;5.70;2.33;;;4.70;99.90;;;;;;5031866;28;20128;-63
2023/01/27 11:11:50;;;;;;;3.55;1.20;;;4.70;99.90;;;;;;5033074;28;20045;-63
2023/01/27 11:14:21;;;;;;;3.40;1.38;;;4.70;99.90;;;;;;5041934;28;20393;-63
2023/01/27 11:17:23;;;;;;;2.95;0.90;;;4.70;99.90;;;;;;5044899;28;20049;-64
2023/01/27 11:20:28;;;;;;;6.30;1.10;;;4.80;99.90;;;;;;5028371;28;20517;-63
2023/01/27 11:23:17;;;;;;;3.15;1.00;;;4.90;99.90;;;;;;5051663;28;20037;-63
2023/01/27 11:26:11;;;;;;;2.70;0.98;;;4.90;99.90;;;;;;5056596;28;20048;-63
2023/01/27 11:28:46;;;;;;;2.35;0.85;;;5.00;99.90;;;;;;5027915;28;20518;-63
2023/01/27 11:31:31;;;;;;;4.55;1.45;;;5.00;99.90;;;;;;5032595;28;20674;-62
2023/01/27 11:34:11;;;;;;;4.18;1.33;;;5.00;99.90;;;;;;5031493;28;20159;-64
2023/01/27 11:36:37;;;;;;;4.18;1.50;;;5.00;99.90;;;;;;5046404;28;20049;-64
2023/01/27 11:39:05;;;;;;;4.90;1.20;;;5.00;99.90;;;;;;5031467;28;20045;-64
2023/01/27 11:41:38;;;;;;;4.40;1.40;;;4.90;99.90;;;;;;5046311;28;20048;-64
2023/01/27 11:44:30;;;;;;;3.42;0.85;;;4.80;99.90;;;;;;5049860;28;20433;-64
2023/01/27 11:46:56;;;;;;;2.65;0.85;;;4.70;99.90;;;;;;5043190;28;20090;-64
2023/01/27 11:49:35;;;;;;;3.10;1.10;;;4.60;99.90;;;;;;5046586;28;20494;-63
2023/01/27 11:52:13;;;;;;;7.57;1.50;;;4.60;99.90;;;;;;5035812;28;20132;-64
2023/01/27 11:55:07;;;;;;;4.20;1.40;;;4.60;99.90;;;;;;5039218;28;20121;-64
2023/01/27 11:57:34;;;;;;;3.35;1.42;;;4.60;99.90;;;;;;5052569;28;20532;-64
2023/01/27 12:00:06;;;;;;;4.10;1.15;;;4.60;99.90;;;;;;5036573;28;20041;-64
2023/01/27 12:02:45;;;;;;;4.70;1.52;;;4.60;99.90;;;;;;5032396;28;20045;-65
2023/01/27 12:05:17;;;;;;;30.70;16.25;;;4.60;99.90;;;;;;5035573;28;20052;-65
2023/01/27 12:07:53;;;;;;;66.78;34.22;;;4.60;99.90;;;;;;5050877;28;20464;-64
2023/01/27 12:10:21;;;;;;;13.32;5.40;;;4.60;99.90;;;;;;5034947;28;20073;-64
2023/01/27 12:12:47;;;;;;;33.33;18.35;;;4.60;99.90;;;;;;5014896;28;20065;-65
2023/01/27 12:15:17;;;;;;;52.00;27.55;;;4.60;99.90;;;;;;5046168;28;20033;-65
2023/01/27 12:18:00;;;;;;;14.82;8.50;;;4.60;99.90;;;;;;5043077;28;20033;-64
2023/01/27 12:20:37;;;;;;;20.55;16.00;;;4.60;99.90;;;;;;5032707;28;20088;-64
2023/01/27 12:23:16;;;;;;;5.63;2.90;;;4.60;99.90;;;;;;5039550;28;20490;-64
2023/01/27 12:26:06;;;;;;;5.22;1.70;;;4.50;99.90;;;;;;5044090;28;20080;-63
2023/01/27 12:28:46;;;;;;;5.93;2.17;;;4.50;99.90;;;;;;5032727;28;20052;-64
2023/01/27 12:31:41;;;;;;;4.75;1.63;;;4.50;99.90;;;;;;5015193;28;20106;-64
2023/01/27 12:34:18;;;;;;;3.45;1.60;;;4.50;99.90;;;;;;5032106;28;20498;-63
2023/01/27 12:36:44;;;;;;;5.47;1.65;;;4.50;99.90;;;;;;5013576;28;20132;-64
2023/01/27 12:39:28;;;;;;;3.40;1.60;;;4.50;99.90;;;;;;5015377;28;20046;-63
2023/01/27 12:41:54;;;;;;;2.92;0.98;;;4.60;99.90;;;;;;5031067;28;20429;-64
2023/01/27 12:44:24;;;;;;;1.88;0.70;;;4.60;99.90;;;;;;5031736;28;20075;-64
2023/01/27 12:47:02;;;;;;;2.38;0.77;;;4.60;99.90;;;;;;5049574;28;20045;-63
2023/01/27 12:49:34;;;;;;;2.53;1.00;;;4.70;99.90;;;;;;5030433;28;20036;-64
2023/01/27 12:52:07;;;;;;;1.65;0.68;;;4.70;99.90;;;;;;5032885;28;20129;-64
2023/01/27 12:54:33;;;;;;;3.78;1.40;;;4.80;99.90;;;;;;5030172;28;20052;-64
2023/01/27 12:57:13;;;;;;;3.40;1.52;;;4.70;99.90;;;;;;5030296;28;20120;-64
2023/01/27 12:59:49;;;;;;;2.95;1.48;;;4.80;99.90;;;;;;5031734;28;20056;-64
2023/01/27 13:02:19;;;;;;;4.82;1.55;;;4.80;99.90;;;;;;5032611;28;20037;-64
2023/01/27 13:04:52;;;;;;;3.47;1.50;;;4.70;99.90;;;;;;5014161;28;20101;-64
2023/01/27 13:07:23;;;;;;;4.72;2.03;;;4.80;99.90;;;;;;5015558;28;20127;-64
2023/01/27 13:09:56;;;;;;;4.03;1.48;;;4.80;99.90;;;;;;5020028;28;20040;-63
2023/01/27 13:12:28;;;;;;;3.92;1.48;;;4.70;99.90;;;;;;5045992;28;20497;-64
2023/01/27 13:15:13;;;;;;;4.28;1.70;;;4.70;99.90;;;;;;5048489;28;20044;-64
2023/01/27 13:17:50;;;;;;;4.22;1.90;;;4.70;99.90;;;;;;5048168;28;20563;-62
2023/01/27 13:20:27;;;;;;;4.20;2.03;;;4.60;99.90;;;;;;5048363;28;20506;-64
2023/01/27 13:23:06;;;;;;;4.70;1.73;;;4.60;99.90;;;;;;5041284;28;20250;-63
2023/01/27 13:26:02;;;;;;;5.07;2.30;;;4.60;99.90;;;;;;5027683;28;20100;-61
2023/01/27 13:28:33;;;;;;;4.85;2.00;;;4.60;99.90;;;;;;5029206;28;20052;-62
2023/01/27 13:31:07;;;;;;;14.43;8.00;;;4.60;99.90;;;;;;5028369;28;20053;-61
2023/01/27 13:33:46;;;;;;;73.90;36.97;;;4.60;99.90;;;;;;5041863;28;20370;-62
2023/01/27 13:36:38;;;;;;;20.45;11.27;;;4.60;99.90;;;;;;5029644;28;20053;-62
2023/01/27 13:39:16;;;;;;;7.45;4.55;;;4.60;99.90;;;;;;5014839;28;20466;-63
2023/01/27 13:41:51;;;;;;;11.50;6.78;;;4.50;99.90;;;;;;5012412;28;20084;-62
2023/01/27 13:44:41;;;;;;;13.40;9.15;;;4.50;99.90;;;;;;5051729;28;20045;-62